createdAt,value
2022-10-23T00:01:44.932Z,10.07
2022-10-23T00:04:17.865Z,10.05
2022-10-23T00:06:44.927Z,10.01
2022-10-23T00:09:13.228Z,9.99
2022-10-23T00:11:41.435Z,9.96
2022-10-23T00:14:09.132Z,9.92
2022-10-23T00:16:36.345Z,9.89
2022-10-23T00:19:03.544Z,9.87
2022-10-23T00:21:29.916Z,9.84
2022-10-23T00:23:56.460Z,9.82
2022-10-23T00:26:22.902Z,9.78
2022-10-23T00:28:51.460Z,9.76
2022-10-23T00:31:19.420Z,9.74
2022-10-23T00:33:46.450Z,9.73
2022-10-23T00:36:14.475Z,9.74
2022-10-23T00:38:43.813Z,9.73
2022-10-23T00:41:16.268Z,9.73
2022-10-23T00:43:59.892Z,9.72
2022-10-23T00:46:26.780Z,9.70
2022-10-23T00:48:53.244Z,9.69
2022-10-23T00:51:19.825Z,9.69
2022-10-23T00:54:01.084Z,9.68
2022-10-23T00:56:41.809Z,9.67
2022-10-23T00:59:08.203Z,9.64
2022-10-23T01:01:34.775Z,9.63
2022-10-23T01:04:03.404Z,9.64
2022-10-23T01:06:45.177Z,9.63
2022-10-23T01:09:18.924Z,9.62
2022-10-23T01:12:02.328Z,9.61
2022-10-23T01:14:43.710Z,9.59
2022-10-23T01:17:40.866Z,9.59
2022-10-23T01:20:39.834Z,9.54
2022-10-23T01:23:10.210Z,9.52
2022-10-23T01:25:57.108Z,9.52
2022-10-23T01:28:36.064Z,9.51
2022-10-23T01:31:09.001Z,9.48
2022-10-23T01:33:41.046Z,9.48
2022-10-23T01:36:14.455Z,9.49
2022-10-23T01:38:54.194Z,9.47
2022-10-23T01:41:36.414Z,9.47
2022-10-23T01:44:30.556Z,9.47
2022-10-23T01:46:57.729Z,9.45
2022-10-23T01:49:26.026Z,9.43
2022-10-23T01:52:00.233Z,9.41
2022-10-23T01:54:31.275Z,9.35
2022-10-23T01:56:58.589Z,9.30
2022-10-23T01:59:35.160Z,9.30
2022-10-23T02:02:03.895Z,9.29
2022-10-23T02:04:40.646Z,9.24
2022-10-23T02:07:07.719Z,9.21
2022-10-23T02:09:34.728Z,9.22
2022-10-23T02:12:05.656Z,9.22
2022-10-23T02:14:53.259Z,9.21
2022-10-23T02:17:38.681Z,9.19
2022-10-23T02:20:15.921Z,9.17
2022-10-23T02:23:05.490Z,9.10
2022-10-23T02:25:44.087Z,9.11
2022-10-23T02:28:18.977Z,9.13
2022-10-23T02:30:49.959Z,9.11
2022-10-23T02:33:17.448Z,9.06
2022-10-23T02:35:46.581Z,9.06
2022-10-23T02:38:42.958Z,9.06
2022-10-23T02:41:29.826Z,9.05
2022-10-23T02:44:15.253Z,9.01
2022-10-23T02:46:47.055Z,9.02
2022-10-23T02:49:17.711Z,9.00
2022-10-23T02:52:13.252Z,9.00
2022-10-23T02:54:57.308Z,8.99
2022-10-23T02:57:35.379Z,8.99
2022-10-23T03:00:13.798Z,8.97
2022-10-23T03:02:51.571Z,8.97
2022-10-23T03:05:22.355Z,8.97
2022-10-23T03:07:49.156Z,8.95
2022-10-23T03:10:17.465Z,8.89
2022-10-23T03:12:44.301Z,8.89
2022-10-23T03:15:14.714Z,8.89
2022-10-23T03:17:41.611Z,8.86
2022-10-23T03:20:09.177Z,8.85
2022-10-23T03:22:35.977Z,8.86
2022-10-23T03:25:02.602Z,8.87
2022-10-23T03:27:31.705Z,8.88
2022-10-23T03:30:02.193Z,8.88
2022-10-23T03:32:29.755Z,8.87
2022-10-23T03:34:56.286Z,8.88
2022-10-23T03:37:23.664Z,8.88
2022-10-23T03:39:50.274Z,8.88
2022-10-23T03:42:17.116Z,8.89
2022-10-23T03:44:43.651Z,8.87
2022-10-23T03:47:11.855Z,8.86
2022-10-23T03:49:39.751Z,8.86
2022-10-23T03:52:07.993Z,8.85
2022-10-23T03:54:35.162Z,8.85
2022-10-23T03:57:02.226Z,8.85
2022-10-23T03:59:29.259Z,8.85
2022-10-23T04:01:55.836Z,8.85
2022-10-23T04:04:24.966Z,8.85
2022-10-23T04:06:51.405Z,8.84
2022-10-23T04:09:19.689Z,8.85
2022-10-23T04:11:46.202Z,8.88
2022-10-23T04:14:13.504Z,8.95
2022-10-23T04:16:40.333Z,8.97
2022-10-23T04:19:06.769Z,8.99
2022-10-23T04:21:33.278Z,8.99
2022-10-23T04:24:00.696Z,9.01
2022-10-23T04:26:28.591Z,9.01
2022-10-23T04:28:55.042Z,9.00
2022-10-23T04:31:21.531Z,9.00
2022-10-23T04:33:48.126Z,9.00
2022-10-23T04:36:30.959Z,9.00
2022-10-23T04:39:04.205Z,9.02
2022-10-23T04:41:30.785Z,9.02
2022-10-23T04:43:57.272Z,9.02
2022-10-23T04:46:23.711Z,9.01
2022-10-23T04:48:50.192Z,9.02
2022-10-23T04:51:26.563Z,9.03
2022-10-23T04:54:11.845Z,9.04
2022-10-23T04:56:40.916Z,9.06
2022-10-23T04:59:11.473Z,9.08
2022-10-23T05:01:39.657Z,9.08
2022-10-23T05:04:07.789Z,9.10
2022-10-23T05:06:44.319Z,9.11
2022-10-23T05:09:16.512Z,9.11
2022-10-23T05:11:54.487Z,9.13
2022-10-23T05:14:22.789Z,9.13
2022-10-23T05:16:51.472Z,9.15
2022-10-23T05:19:26.257Z,9.15
2022-10-23T05:21:55.885Z,9.15
2022-10-23T05:24:26.413Z,9.17
2022-10-23T05:26:57.687Z,9.20
2022-10-23T05:29:24.111Z,9.24
2022-10-23T05:31:56.958Z,9.26
2022-10-23T05:34:28.017Z,9.30
2022-10-23T05:36:55.002Z,9.33
2022-10-23T05:39:23.438Z,9.36
2022-10-23T05:41:52.736Z,9.43
2022-10-23T05:44:22.914Z,9.49
2022-10-23T05:47:09.698Z,9.51
2022-10-23T05:49:53.313Z,9.52
2022-10-23T05:52:47.416Z,9.53
2022-10-23T05:55:42.850Z,9.57
2022-10-23T05:58:27.714Z,9.59
2022-10-23T06:01:05.057Z,9.60
2022-10-23T06:03:51.092Z,9.62
2022-10-23T06:06:19.867Z,9.62
2022-10-23T06:08:48.544Z,9.62
2022-10-23T06:11:16.345Z,9.62
2022-10-23T06:13:51.379Z,9.63
2022-10-23T06:16:22.763Z,9.64
2022-10-23T06:18:49.410Z,9.65
2022-10-23T06:21:18.073Z,9.65
2022-10-23T06:23:47.783Z,9.64
2022-10-23T06:26:31.119Z,9.66
2022-10-23T06:29:09.600Z,9.65
2022-10-23T06:31:37.403Z,9.65
2022-10-23T06:34:05.950Z,9.66
2022-10-23T06:36:32.825Z,9.66
2022-10-23T06:39:07.168Z,9.67
2022-10-23T06:41:52.295Z,9.68
2022-10-23T06:44:38.731Z,9.70
2022-10-23T06:47:10.821Z,9.73
2022-10-23T06:49:56.195Z,9.74
2022-10-23T06:52:45.246Z,9.76
2022-10-23T06:55:10.126Z,9.79
2022-10-23T06:57:37.924Z,9.81
2022-10-23T07:00:05.767Z,9.84
2022-10-23T07:02:41.566Z,9.87
2022-10-23T07:05:11.322Z,9.90
2022-10-23T07:07:40.033Z,9.93
2022-10-23T07:10:07.530Z,9.95
2022-10-23T07:12:48.739Z,9.98
2022-10-23T07:15:44.344Z,10.04
2022-10-23T07:18:16.760Z,10.08
2022-10-23T07:21:06.701Z,10.12
2022-10-23T07:23:33.251Z,10.16
2022-10-23T07:26:18.934Z,10.21
2022-10-23T07:28:48.700Z,10.26
2022-10-23T07:31:23.068Z,10.31
2022-10-23T07:34:11.032Z,10.38
2022-10-23T07:36:37.874Z,10.44
2022-10-23T07:39:05.096Z,10.49
2022-10-23T07:41:35.292Z,10.53
2022-10-23T07:44:01.736Z,10.59
2022-10-23T07:46:28.308Z,10.68
2022-10-23T07:48:54.916Z,10.77
2022-10-23T07:51:21.756Z,10.83
2022-10-23T07:53:54.742Z,10.90
2022-10-23T07:57:00.688Z,11.00
2022-10-23T07:59:38.386Z,11.07
2022-10-23T08:02:13.758Z,11.16
2022-10-23T08:04:41.378Z,11.24
2022-10-23T08:07:19.663Z,11.34
2022-10-23T08:09:47.656Z,11.42
2022-10-23T08:12:14.156Z,11.50
2022-10-23T08:14:40.876Z,11.59
2022-10-23T08:17:09.611Z,11.67
2022-10-23T08:20:13.529Z,11.79
2022-10-23T08:22:42.444Z,11.85
2022-10-23T08:25:10.832Z,11.92
2022-10-23T08:27:38.101Z,12.01
2022-10-23T08:30:05.819Z,12.05
2022-10-23T08:32:32.355Z,12.12
2022-10-23T08:35:00.329Z,12.16
2022-10-23T08:37:29.946Z,12.23
2022-10-23T08:39:56.572Z,12.29
2022-10-23T08:42:48.295Z,12.37
2022-10-23T08:45:31.066Z,12.45
2022-10-23T08:48:22.048Z,12.50
2022-10-23T08:51:27.257Z,12.56
2022-10-23T08:54:06.531Z,12.64
2022-10-23T08:56:36.849Z,12.69
2022-10-23T08:59:19.998Z,12.76
2022-10-23T09:02:26.977Z,12.85
2022-10-23T09:04:55.377Z,12.93
2022-10-23T09:07:36.813Z,13.01
2022-10-23T09:10:25.219Z,13.14
2022-10-23T09:12:51.858Z,13.21
2022-10-23T09:15:24.742Z,13.29
2022-10-23T09:17:59.196Z,13.34
2022-10-23T09:20:34.786Z,13.41
2022-10-23T09:23:07.700Z,13.48
2022-10-23T09:25:38.660Z,13.51
2022-10-23T09:28:05.964Z,13.52
2022-10-23T09:30:32.593Z,13.55
2022-10-23T09:33:00.934Z,13.57
2022-10-23T09:35:30.688Z,13.60
2022-10-23T09:37:57.195Z,13.60
2022-10-23T09:40:33.255Z,13.62
2022-10-23T09:43:04.002Z,13.62
2022-10-23T09:45:33.580Z,13.62
2022-10-23T09:48:17.729Z,13.63
2022-10-23T09:51:17.715Z,13.64
2022-10-23T09:53:54.911Z,13.66
2022-10-23T09:56:25.884Z,13.69
2022-10-23T09:59:04.346Z,13.76
2022-10-23T10:01:45.213Z,13.79
2022-10-23T10:04:39.624Z,13.86
2022-10-23T10:07:18.272Z,13.90
2022-10-23T10:09:44.928Z,13.94
2022-10-23T10:12:30.061Z,14.00
2022-10-23T10:15:35.448Z,14.06
2022-10-23T10:18:20.491Z,14.12
2022-10-23T10:21:00.980Z,14.17
2022-10-23T10:23:34.773Z,14.20
2022-10-23T10:26:33.476Z,14.24
2022-10-23T10:29:13.485Z,14.28
2022-10-23T10:31:59.040Z,14.31
2022-10-23T10:34:33.362Z,14.35
2022-10-23T10:37:34.402Z,14.39
2022-10-23T10:40:09.796Z,14.43
2022-10-23T10:43:06.828Z,14.47
2022-10-23T10:45:38.585Z,14.51
2022-10-23T10:48:10.896Z,14.57
2022-10-23T10:51:21.410Z,14.61
2022-10-23T10:53:53.781Z,14.64
2022-10-23T10:56:25.963Z,14.67
2022-10-23T10:59:00.939Z,14.73
2022-10-23T11:01:45.561Z,14.76
2022-10-23T11:04:46.274Z,14.82
2022-10-23T11:07:17.732Z,14.85
2022-10-23T11:09:44.331Z,14.90
2022-10-23T11:12:21.248Z,14.98
2022-10-23T11:14:49.873Z,15.04
2022-10-23T11:17:24.437Z,15.06
2022-10-23T11:20:05.670Z,15.08
2022-10-23T11:23:01.877Z,15.11
2022-10-23T11:25:53.776Z,15.14
2022-10-23T11:28:37.337Z,15.19
2022-10-23T11:31:35.390Z,15.29
2022-10-23T11:34:08.011Z,15.37
2022-10-23T11:36:49.740Z,15.47
2022-10-23T11:39:21.252Z,15.58
2022-10-23T11:42:04.745Z,15.67
2022-10-23T11:44:49.421Z,15.80
2022-10-23T11:47:36.348Z,15.91
2022-10-23T11:50:07.709Z,16.01
2022-10-23T11:53:19.917Z,16.09
2022-10-23T11:56:06.882Z,16.16
2022-10-23T11:58:48.604Z,16.22
2022-10-23T12:01:21.023Z,16.31
2022-10-23T12:04:17.688Z,16.34
2022-10-23T12:06:59.775Z,16.40
2022-10-23T12:09:43.878Z,16.45
2022-10-23T12:12:10.231Z,16.46
2022-10-23T12:14:43.324Z,16.49
2022-10-23T12:17:23.988Z,16.56
2022-10-23T12:20:01.775Z,16.59
2022-10-23T12:22:38.382Z,16.63
2022-10-23T12:25:33.316Z,16.66
2022-10-23T12:28:15.994Z,16.70
2022-10-23T12:33:44.754Z,16.73
2022-10-23T12:36:26.219Z,16.77
2022-10-23T12:38:54.664Z,16.77
2022-10-23T12:41:30.603Z,16.80
2022-10-23T12:44:02.764Z,16.79
2022-10-23T12:46:31.982Z,16.81
2022-10-23T12:48:59.963Z,16.85
2022-10-23T12:51:29.365Z,16.90
2022-10-23T12:53:56.011Z,16.91
2022-10-23T12:56:22.729Z,16.88
2022-10-23T12:58:53.539Z,16.92
2022-10-23T13:01:26.770Z,16.93
2022-10-23T13:04:04.494Z,16.96
2022-10-23T13:06:32.010Z,16.98
2022-10-23T13:08:58.854Z,17.02
2022-10-23T13:11:36.650Z,17.04
2022-10-23T13:14:14.255Z,17.10
2022-10-23T13:16:40.720Z,17.13
2022-10-23T13:19:22.241Z,17.15
2022-10-23T13:21:49.313Z,17.19
2022-10-23T13:24:20.978Z,17.19
2022-10-23T13:26:47.510Z,17.22
2022-10-23T13:29:33.321Z,17.25
2022-10-23T13:32:21.724Z,17.28
2022-10-23T13:35:10.402Z,17.28
2022-10-23T13:37:42.193Z,17.32
2022-10-23T13:40:23.626Z,17.36
2022-10-23T13:42:51.155Z,17.42
2022-10-23T13:45:23.522Z,17.46
2022-10-23T13:47:50.076Z,17.48
2022-10-23T13:50:17.108Z,17.50
2022-10-23T13:52:43.905Z,17.48
2022-10-23T13:55:16.527Z,17.49
2022-10-23T13:57:43.333Z,17.50
2022-10-23T14:00:10.576Z,17.50
2022-10-23T14:02:38.342Z,17.51
2022-10-23T14:05:04.876Z,17.51
2022-10-23T14:07:31.259Z,17.53
2022-10-23T14:09:57.663Z,17.52
2022-10-23T14:12:24.406Z,17.53
2022-10-23T14:14:51.840Z,17.51
2022-10-23T14:17:19.196Z,17.52
2022-10-23T14:19:45.907Z,17.52
2022-10-23T14:22:13.608Z,17.54
2022-10-23T14:24:40.040Z,17.56
2022-10-23T14:27:06.452Z,17.58
2022-10-23T14:29:32.888Z,17.60
2022-10-23T14:31:59.332Z,17.67
2022-10-23T14:34:25.747Z,17.72
2022-10-23T14:37:07.294Z,17.75
2022-10-23T14:39:34.905Z,17.74
2022-10-23T14:42:01.332Z,17.72
2022-10-23T14:44:27.975Z,17.69
2022-10-23T14:46:54.510Z,17.66
2022-10-23T14:49:20.979Z,17.63
2022-10-23T14:51:47.389Z,17.62
2022-10-23T14:54:15.643Z,17.61
2022-10-23T14:56:42.139Z,17.60
2022-10-23T14:59:10.582Z,17.59
2022-10-23T15:01:45.205Z,17.58
2022-10-23T15:04:14.869Z,17.55
2022-10-23T15:06:42.284Z,17.55
2022-10-23T15:09:08.733Z,17.52
2022-10-23T15:11:35.189Z,17.50
2022-10-23T15:14:01.564Z,17.46
2022-10-23T15:16:28.348Z,17.43
2022-10-23T15:18:54.881Z,17.37
2022-10-23T15:21:21.477Z,17.34
2022-10-23T15:23:48.872Z,17.30
2022-10-23T15:26:21.346Z,17.26
2022-10-23T15:28:53.203Z,17.22
2022-10-23T15:31:37.796Z,17.18
2022-10-23T15:34:05.459Z,17.13
2022-10-23T15:36:32.016Z,17.08
2022-10-23T15:38:58.413Z,17.04
2022-10-23T15:41:32.605Z,17.01
2022-10-23T15:44:00.722Z,16.96
2022-10-23T15:46:27.307Z,16.94
2022-10-23T15:48:54.144Z,16.92
2022-10-23T15:51:21.361Z,16.90
2022-10-23T15:53:47.860Z,16.86
2022-10-23T15:56:14.368Z,16.86
2022-10-23T15:58:40.796Z,16.84
2022-10-23T16:01:07.473Z,16.82
2022-10-23T16:03:35.742Z,16.84
2022-10-23T16:06:10.716Z,16.82
2022-10-23T16:08:37.922Z,16.78
2022-10-23T16:11:12.670Z,16.75
2022-10-23T16:13:39.065Z,16.72
2022-10-23T16:16:05.840Z,16.70
2022-10-23T16:18:32.242Z,16.69
2022-10-23T16:20:58.641Z,16.68
2022-10-23T16:23:25.082Z,16.69
2022-10-23T16:25:51.467Z,16.67
2022-10-23T16:28:17.912Z,16.66
2022-10-23T16:30:44.393Z,16.64
2022-10-23T16:33:10.803Z,16.64
2022-10-23T16:35:37.440Z,16.66
2022-10-23T16:38:11.983Z,16.66
2022-10-23T16:40:38.410Z,16.63
2022-10-23T16:43:30.904Z,16.60
2022-10-23T16:46:13.312Z,16.58
2022-10-23T16:48:40.510Z,16.55
2022-10-23T16:51:09.032Z,16.54
2022-10-23T16:53:35.617Z,16.51
2022-10-23T16:56:06.922Z,16.49
2022-10-23T16:58:34.428Z,16.46
2022-10-23T17:01:06.650Z,16.45
2022-10-23T17:03:38.612Z,16.42
2022-10-23T17:06:08.897Z,16.39
2022-10-23T17:08:37.495Z,16.39
2022-10-23T17:11:07.125Z,16.38
2022-10-23T17:13:34.624Z,16.38
2022-10-23T17:16:13.850Z,16.36
2022-10-23T17:18:43.924Z,16.34
2022-10-23T17:21:12.050Z,16.30
2022-10-23T17:23:38.520Z,16.30
2022-10-23T17:26:08.435Z,16.30
2022-10-23T17:28:39.850Z,16.30
2022-10-23T17:31:26.860Z,16.30
2022-10-23T17:33:57.393Z,16.28
2022-10-23T17:36:26.038Z,16.26
2022-10-23T17:38:53.139Z,16.23
2022-10-23T17:41:20.898Z,16.21
2022-10-23T17:43:48.157Z,16.21
2022-10-23T17:46:15.192Z,16.19
2022-10-23T17:48:45.073Z,16.19
2022-10-23T17:51:14.754Z,16.19
2022-10-23T17:53:43.713Z,16.22
2022-10-23T17:56:13.297Z,16.23
2022-10-23T17:58:39.823Z,16.20
2022-10-23T18:01:12.452Z,16.21
2022-10-23T18:03:40.168Z,16.21
2022-10-23T18:06:12.745Z,16.26
2022-10-23T18:08:40.798Z,16.26
2022-10-23T18:11:08.011Z,16.31
2022-10-23T18:13:36.752Z,16.32
2022-10-23T18:16:04.780Z,16.31
2022-10-23T18:18:31.470Z,16.32
2022-10-23T18:20:58.976Z,16.33
2022-10-23T18:23:26.431Z,16.36
2022-10-23T18:25:53.265Z,16.37
2022-10-23T18:28:20.331Z,16.41
2022-10-23T18:30:48.193Z,16.44
2022-10-23T18:33:15.859Z,16.43
2022-10-23T18:35:42.797Z,16.45
2022-10-23T18:38:10.193Z,16.49
2022-10-23T18:40:37.635Z,16.49
2022-10-23T18:43:09.114Z,16.50
2022-10-23T18:45:42.510Z,16.56
2022-10-23T18:48:08.898Z,16.61
2022-10-23T18:50:37.202Z,16.60
2022-10-23T18:53:04.660Z,16.58
2022-10-23T18:55:31.077Z,16.58
2022-10-23T18:57:57.832Z,16.59
2022-10-23T19:00:24.416Z,16.57
2022-10-23T19:02:52.455Z,16.59
2022-10-23T19:05:19.563Z,16.57
2022-10-23T19:07:47.975Z,16.55
2022-10-23T19:10:17.877Z,16.53
2022-10-23T19:12:44.486Z,16.49
2022-10-23T19:15:11.080Z,16.46
2022-10-23T19:17:37.710Z,16.41
2022-10-23T19:20:10.645Z,16.34
2022-10-23T19:22:40.586Z,16.30
2022-10-23T19:25:12.657Z,16.28
2022-10-23T19:27:40.008Z,16.22
2022-10-23T19:30:13.356Z,16.23
2022-10-23T19:32:41.563Z,16.16
2022-10-23T19:35:09.347Z,16.13
2022-10-23T19:37:36.423Z,16.12
2022-10-23T19:40:06.549Z,16.07
2022-10-23T19:42:34.418Z,16.01
2022-10-23T19:45:01.123Z,15.97
2022-10-23T19:47:27.565Z,15.93
2022-10-23T19:49:53.995Z,15.89
2022-10-23T19:52:22.102Z,15.84
2022-10-23T19:54:49.087Z,15.82
2022-10-23T19:57:18.058Z,15.80
2022-10-23T19:59:50.519Z,15.77
2022-10-23T20:02:18.643Z,15.74
2022-10-23T20:04:45.364Z,15.70
2022-10-23T20:07:12.091Z,15.67
2022-10-23T20:09:38.587Z,15.63
2022-10-23T20:12:05.089Z,15.60
2022-10-23T20:14:31.843Z,15.56
2022-10-23T20:16:59.761Z,15.49
2022-10-23T20:19:26.388Z,15.46
2022-10-23T20:21:52.843Z,15.41
2022-10-23T20:24:20.624Z,15.37
2022-10-23T20:26:49.891Z,15.33
2022-10-23T20:29:16.436Z,15.29
2022-10-23T20:31:43.434Z,15.24
2022-10-23T20:34:11.121Z,15.21
2022-10-23T20:36:46.410Z,15.21
2022-10-23T20:39:17.676Z,15.15
2022-10-23T20:41:44.976Z,15.09
2022-10-23T20:44:14.444Z,15.05
2022-10-23T20:46:41.656Z,15.01
2022-10-23T20:49:12.975Z,14.96
2022-10-23T20:51:39.489Z,14.87
2022-10-23T20:54:06.205Z,14.84
2022-10-23T20:56:35.152Z,14.85
2022-10-23T20:59:04.534Z,14.85
2022-10-23T21:01:32.778Z,14.82
2022-10-23T21:04:01.242Z,14.81
2022-10-23T21:06:41.028Z,14.78
2022-10-23T21:09:16.613Z,14.74
2022-10-23T21:11:43.030Z,14.72
2022-10-23T21:14:09.471Z,14.71
2022-10-23T21:16:40.682Z,14.67
2022-10-23T21:19:08.760Z,14.66
2022-10-23T21:21:35.483Z,14.67
2022-10-23T21:24:07.452Z,14.67
2022-10-23T21:26:34.495Z,14.63
2022-10-23T21:29:17.325Z,14.60
2022-10-23T21:31:45.362Z,14.56
2022-10-23T21:34:11.949Z,14.52
2022-10-23T21:36:53.902Z,14.50
2022-10-23T21:39:25.109Z,14.48
2022-10-23T21:41:51.575Z,14.48
2022-10-23T21:44:18.031Z,14.49
2022-10-23T21:46:44.517Z,14.49
2022-10-23T21:49:11.720Z,14.47
2022-10-23T21:51:38.885Z,14.46
2022-10-23T21:54:07.912Z,14.46
2022-10-23T21:56:41.819Z,14.45
2022-10-23T21:59:12.700Z,14.46
2022-10-23T22:01:40.688Z,14.46
2022-10-23T22:04:07.293Z,14.47
2022-10-23T22:06:33.735Z,14.47
2022-10-23T22:09:00.260Z,14.49
2022-10-23T22:11:27.441Z,14.50
2022-10-23T22:13:54.286Z,14.51
2022-10-23T22:16:20.832Z,14.53
2022-10-23T22:18:48.044Z,14.55
2022-10-23T22:21:20.127Z,14.56
2022-10-23T22:23:49.341Z,14.56
2022-10-23T22:26:26.305Z,14.56
2022-10-23T22:28:55.816Z,14.52
2022-10-23T22:31:25.707Z,14.51
2022-10-23T22:33:53.230Z,14.51
2022-10-23T22:36:19.711Z,14.47
2022-10-23T22:38:46.418Z,14.49
2022-10-23T22:41:13.321Z,14.50
2022-10-23T22:43:39.998Z,14.51
2022-10-23T22:46:14.756Z,14.52
2022-10-23T22:48:42.027Z,14.52
2022-10-23T22:51:11.231Z,14.52
2022-10-23T22:53:37.611Z,14.51
2022-10-23T22:56:13.412Z,14.50
2022-10-23T22:58:39.995Z,14.51
2022-10-23T23:01:10.528Z,14.50
2022-10-23T23:03:37.819Z,14.49
2022-10-23T23:06:06.058Z,14.52
2022-10-23T23:08:33.597Z,14.52
2022-10-23T23:11:00.187Z,14.53
2022-10-23T23:13:28.192Z,14.54
2022-10-23T23:15:55.253Z,14.52
2022-10-23T23:18:21.915Z,14.51
2022-10-23T23:20:49.018Z,14.47
2022-10-23T23:23:16.281Z,14.43
2022-10-23T23:25:50.253Z,14.40
2022-10-23T23:28:19.441Z,14.34
2022-10-23T23:33:23.560Z,14.29
2022-10-23T23:35:49.975Z,14.26
2022-10-23T23:38:16.356Z,14.25
2022-10-23T23:40:50.878Z,14.28
2022-10-23T23:43:17.806Z,14.32
2022-10-23T23:45:44.333Z,14.34
2022-10-23T23:48:10.875Z,14.40
2022-10-23T23:50:37.316Z,14.43
2022-10-23T23:53:03.976Z,14.48
2022-10-23T23:55:30.457Z,14.52
2022-10-23T23:57:56.975Z,14.55
